sensor_id;sensor_type;location;lat;lon;timestamp;pressure;altitude;pressure_sealevel;temperature;humidity
61870;BME280;47810;42.264;23.826;2024-03-07T00:05:30;93627.28;;;5.64;100.00
61870;BME280;47810;42.264;23.826;2024-03-07T00:07:59;93624.59;;;5.65;100.00
61870;BME280;47810;42.264;23.826;2024-03-07T00:13:45;93629.44;;;5.73;100.00
61870;BME280;47810;42.264;23.826;2024-03-07T00:16:13;93621.34;;;5.77;100.00
61870;BME280;47810;42.264;23.826;2024-03-07T00:18:40;93623.75;;;5.82;100.00
61870;BME280;47810;42.264;23.826;2024-03-07T00:21:06;93624.88;;;5.76;100.00
61870;BME280;47810;42.264;23.826;2024-03-07T00:24:14;93628.06;;;5.66;100.00
61870;BME280;47810;42.264;23.826;2024-03-07T00:26:47;93627.53;;;5.59;100.00
61870;BME280;47810;42.264;23.826;2024-03-07T00:32:47;93616.28;;;5.40;100.00
61870;BME280;47810;42.264;23.826;2024-03-07T00:38:23;93614.78;;;5.51;100.00
61870;BME280;47810;42.264;23.826;2024-03-07T00:44:42;93617.13;;;5.40;100.00
61870;BME280;47810;42.264;23.826;2024-03-07T00:51:03;93612.13;;;5.53;100.00
61870;BME280;47810;42.264;23.826;2024-03-07T00:53:36;93613.16;;;5.49;100.00
61870;BME280;47810;42.264;23.826;2024-03-07T00:56:04;93612.97;;;5.53;100.00
61870;BME280;47810;42.264;23.826;2024-03-07T00:58:56;93616.25;;;5.57;100.00
61870;BME280;47810;42.264;23.826;2024-03-07T01:12:41;93617.94;;;5.23;100.00
61870;BME280;47810;42.264;23.826;2024-03-07T01:15:19;93607.63;;;5.20;100.00
61870;BME280;47810;42.264;23.826;2024-03-07T01:17:45;93612.13;;;5.17;100.00
61870;BME280;47810;42.264;23.826;2024-03-07T01:20:23;93604.38;;;5.15;100.00
61870;BME280;47810;42.264;23.826;2024-03-07T01:23:23;93614.75;;;5.17;100.00
61870;BME280;47810;42.264;23.826;2024-03-07T01:36:02;93601.50;;;5.20;100.00
61870;BME280;47810;42.264;23.826;2024-03-07T01:38:30;93594.84;;;5.14;100.00
61870;BME280;47810;42.264;23.826;2024-03-07T01:41:12;93604.03;;;5.04;100.00
61870;BME280;47810;42.264;23.826;2024-03-07T01:47:32;93604.13;;;4.83;100.00
61870;BME280;47810;42.264;23.826;2024-03-07T01:49:58;93593.00;;;4.97;100.00
61870;BME280;47810;42.264;23.826;2024-03-07T01:59:05;93593.56;;;5.04;100.00
61870;BME280;47810;42.264;23.826;2024-03-07T02:01:49;93596.25;;;5.02;100.00
61870;BME280;47810;42.264;23.826;2024-03-07T02:04:26;93584.16;;;5.00;100.00
61870;BME280;47810;42.264;23.826;2024-03-07T02:06:54;93598.34;;;4.96;100.00
61870;BME280;47810;42.264;23.826;2024-03-07T02:09:24;93590.34;;;4.99;100.00
61870;BME280;47810;42.264;23.826;2024-03-07T02:15:35;93587.88;;;5.13;100.00
61870;BME280;47810;42.264;23.826;2024-03-07T02:18:21;93593.91;;;5.15;100.00
61870;BME280;47810;42.264;23.826;2024-03-07T02:20:46;93589.59;;;5.14;100.00
61870;BME280;47810;42.264;23.826;2024-03-07T02:23:24;93593.13;;;5.13;100.00
61870;BME280;47810;42.264;23.826;2024-03-07T02:25:54;93594.22;;;5.26;100.00
61870;BME280;47810;42.264;23.826;2024-03-07T02:32:21;93596.56;;;5.50;100.00
61870;BME280;47810;42.264;23.826;2024-03-07T02:38:04;93601.09;;;5.46;100.00
61870;BME280;47810;42.264;23.826;2024-03-07T02:40:34;93600.16;;;5.47;100.00
61870;BME280;47810;42.264;23.826;2024-03-07T02:43:01;93601.00;;;5.48;100.00
61870;BME280;47810;42.264;23.826;2024-03-07T02:45:31;93593.22;;;5.29;100.00
61870;BME280;47810;42.264;23.826;2024-03-07T02:51:35;93609.00;;;5.27;100.00
61870;BME280;47810;42.264;23.826;2024-03-07T02:57:12;93606.69;;;5.38;100.00
61870;BME280;47810;42.264;23.826;2024-03-07T03:03:12;93604.22;;;5.18;100.00
61870;BME280;47810;42.264;23.826;2024-03-07T03:05:43;93603.28;;;5.19;100.00
61870;BME280;47810;42.264;23.826;2024-03-07T03:08:41;93605.31;;;5.14;100.00
61870;BME280;47810;42.264;23.826;2024-03-07T03:17:33;93619.13;;;5.16;100.00
61870;BME280;47810;42.264;23.826;2024-03-07T03:24:03;93625.63;;;5.26;100.00
61870;BME280;47810;42.264;23.826;2024-03-07T03:26:31;93634.09;;;5.31;100.00
61870;BME280;47810;42.264;23.826;2024-03-07T03:32:04;93637.25;;;5.21;100.00
61870;BME280;47810;42.264;23.826;2024-03-07T03:34:41;93647.88;;;5.18;100.00
61870;BME280;47810;42.264;23.826;2024-03-07T03:37:10;93650.03;;;5.27;100.00
61870;BME280;47810;42.264;23.826;2024-03-07T03:46:24;93648.56;;;5.21;100.00
61870;BME280;47810;42.264;23.826;2024-03-07T03:48:55;93646.16;;;5.17;100.00
61870;BME280;47810;42.264;23.826;2024-03-07T03:51:40;93644.19;;;5.22;100.00
61870;BME280;47810;42.264;23.826;2024-03-07T03:54:31;93644.19;;;5.22;100.00
61870;BME280;47810;42.264;23.826;2024-03-07T03:57:00;93641.78;;;5.17;100.00
61870;BME280;47810;42.264;23.826;2024-03-07T03:59:42;93638.03;;;5.04;100.00
61870;BME280;47810;42.264;23.826;2024-03-07T04:05:38;93648.28;;;4.33;100.00
61870;BME280;47810;42.264;23.826;2024-03-07T04:12:00;93646.16;;;4.22;100.00
61870;BME280;47810;42.264;23.826;2024-03-07T04:17:44;93647.56;;;4.50;100.00
61870;BME280;47810;42.264;23.826;2024-03-07T04:20:37;93643.28;;;4.28;100.00
61870;BME280;47810;42.264;23.826;2024-03-07T04:23:03;93639.25;;;4.21;100.00
61870;BME280;47810;42.264;23.826;2024-03-07T04:25:33;93652.13;;;3.85;100.00
61870;BME280;47810;42.264;23.826;2024-03-07T04:27:59;93649.91;;;3.76;100.00
61870;BME280;47810;42.264;23.826;2024-03-07T04:34:20;93660.75;;;3.24;100.00
61870;BME280;47810;42.264;23.826;2024-03-07T04:36:53;93649.84;;;3.14;100.00
61870;BME280;47810;42.264;23.826;2024-03-07T04:39:19;93645.19;;;3.00;100.00
61870;BME280;47810;42.264;23.826;2024-03-07T04:42:02;93638.94;;;3.04;100.00
61870;BME280;47810;42.264;23.826;2024-03-07T04:44:48;93634.16;;;3.16;100.00
61870;BME280;47810;42.264;23.826;2024-03-07T04:47:31;93629.56;;;3.21;100.00
61870;BME280;47810;42.264;23.826;2024-03-07T04:49:59;93635.06;;;3.15;100.00
61870;BME280;47810;42.264;23.826;2024-03-07T04:52:31;93620.88;;;3.42;100.00
61870;BME280;47810;42.264;23.826;2024-03-07T04:54:57;93626.50;;;3.74;100.00
61870;BME280;47810;42.264;23.826;2024-03-07T04:57:25;93629.88;;;3.96;100.00
61870;BME280;47810;42.264;23.826;2024-03-07T04:59:52;93629.88;;;3.96;100.00
61870;BME280;47810;42.264;23.826;2024-03-07T05:02:23;93631.16;;;4.07;100.00
61870;BME280;47810;42.264;23.826;2024-03-07T05:04:49;93636.56;;;3.83;100.00
61870;BME280;47810;42.264;23.826;2024-03-07T05:07:17;93633.22;;;3.80;100.00
61870;BME280;47810;42.264;23.826;2024-03-07T05:09:43;93637.06;;;3.91;100.00
61870;BME280;47810;42.264;23.826;2024-03-07T05:12:15;93631.06;;;3.89;100.00
61870;BME280;47810;42.264;23.826;2024-03-07T05:18:02;93642.84;;;3.79;100.00
61870;BME280;47810;42.264;23.826;2024-03-07T05:20:30;93641.63;;;3.66;100.00
61870;BME280;47810;42.264;23.826;2024-03-07T05:22:57;93649.66;;;3.61;100.00
61870;BME280;47810;42.264;23.826;2024-03-07T05:25:26;93658.53;;;3.57;100.00
61870;BME280;47810;42.264;23.826;2024-03-07T05:27:57;93654.63;;;3.67;100.00
61870;BME280;47810;42.264;23.826;2024-03-07T05:30:24;93661.88;;;3.81;100.00
61870;BME280;47810;42.264;23.826;2024-03-07T05:33:00;93672.06;;;4.08;100.00
61870;BME280;47810;42.264;23.826;2024-03-07T05:35:27;93672.44;;;4.19;100.00
61870;BME280;47810;42.264;23.826;2024-03-07T05:38:06;93675.88;;;4.19;100.00
61870;BME280;47810;42.264;23.826;2024-03-07T05:40:36;93670.16;;;4.11;100.00
61870;BME280;47810;42.264;23.826;2024-03-07T05:43:07;93679.13;;;3.85;100.00
61870;BME280;47810;42.264;23.826;2024-03-07T05:45:42;93667.34;;;3.75;100.00
61870;BME280;47810;42.264;23.826;2024-03-07T05:48:14;93670.88;;;4.15;100.00
61870;BME280;47810;42.264;23.826;2024-03-07T05:50:43;93661.53;;;4.09;100.00
61870;BME280;47810;42.264;23.826;2024-03-07T05:53:13;93671.78;;;3.93;100.00
61870;BME280;47810;42.264;23.826;2024-03-07T05:59:33;93676.09;;;4.15;100.00
61870;BME280;47810;42.264;23.826;2024-03-07T06:05:09;93662.78;;;4.21;100.00
61870;BME280;47810;42.264;23.826;2024-03-07T06:07:41;93669.97;;;3.95;100.00
61870;BME280;47810;42.264;23.826;2024-03-07T06:10:07;93661.28;;;4.15;100.00
61870;BME280;47810;42.264;23.826;2024-03-07T06:21:50;93671.97;;;4.49;100.00
61870;BME280;47810;42.264;23.826;2024-03-07T06:24:21;93661.38;;;4.33;100.00
61870;BME280;47810;42.264;23.826;2024-03-07T06:30:17;93665.00;;;4.30;100.00
61870;BME280;47810;42.264;23.826;2024-03-07T06:36:21;93664.47;;;4.22;100.00
61870;BME280;47810;42.264;23.826;2024-03-07T06:42:41;93660.44;;;4.15;100.00
61870;BME280;47810;42.264;23.826;2024-03-07T06:45:08;93665.25;;;4.24;100.00
61870;BME280;47810;42.264;23.826;2024-03-07T06:47:57;93657.19;;;4.29;100.00
61870;BME280;47810;42.264;23.826;2024-03-07T06:50:25;93666.81;;;4.28;100.00
61870;BME280;47810;42.264;23.826;2024-03-07T06:52:57;93670.84;;;4.35;100.00
61870;BME280;47810;42.264;23.826;2024-03-07T06:58:38;93674.88;;;4.42;100.00
61870;BME280;47810;42.264;23.826;2024-03-07T07:01:26;93674.72;;;4.46;100.00
61870;BME280;47810;42.264;23.826;2024-03-07T07:04:07;93673.19;;;4.41;100.00
61870;BME280;47810;42.264;23.826;2024-03-07T07:10:07;93693.25;;;4.41;100.00
61870;BME280;47810;42.264;23.826;2024-03-07T07:16:15;93696.25;;;4.32;100.00
61870;BME280;47810;42.264;23.826;2024-03-07T07:18:53;93700.25;;;4.20;100.00
61870;BME280;47810;42.264;23.826;2024-03-07T07:21:31;93708.63;;;4.28;100.00
61870;BME280;47810;42.264;23.826;2024-03-07T07:23:59;93715.28;;;4.35;100.00
61870;BME280;47810;42.264;23.826;2024-03-07T07:26:29;93735.16;;;4.19;100.00
61870;BME280;47810;42.264;23.826;2024-03-07T07:32:02;93740.84;;;4.08;100.00
61870;BME280;47810;42.264;23.826;2024-03-07T07:38:41;93731.06;;;3.91;100.00
61870;BME280;47810;42.264;23.826;2024-03-07T07:41:11;93722.28;;;3.94;100.00
61870;BME280;47810;42.264;23.826;2024-03-07T07:43:39;93724.03;;;3.93;100.00
61870;BME280;47810;42.264;23.826;2024-03-07T07:49:34;93733.88;;;4.07;100.00
61870;BME280;47810;42.264;23.826;2024-03-07T07:52:05;93739.06;;;4.09;100.00
61870;BME280;47810;42.264;23.826;2024-03-07T07:54:42;93735.53;;;4.10;100.00
61870;BME280;47810;42.264;23.826;2024-03-07T07:57:19;93733.47;;;4.18;100.00
61870;BME280;47810;42.264;23.826;2024-03-07T07:59:44;93734.09;;;4.23;100.00
61870;BME280;47810;42.264;23.826;2024-03-07T08:02:12;93727.50;;;4.14;100.00
61870;BME280;47810;42.264;23.826;2024-03-07T08:04:47;93732.78;;;4.33;100.00
61870;BME280;47810;42.264;23.826;2024-03-07T08:07:26;93736.56;;;4.47;100.00
61870;BME280;47810;42.264;23.826;2024-03-07T08:10:04;93723.50;;;4.47;100.00
61870;BME280;47810;42.264;23.826;2024-03-07T08:22:14;93728.22;;;4.38;100.00
61870;BME280;47810;42.264;23.826;2024-03-07T08:24:40;93731.78;;;4.36;100.00
61870;BME280;47810;42.264;23.826;2024-03-07T08:30:44;93726.59;;;4.55;100.00
61870;BME280;47810;42.264;23.826;2024-03-07T08:33:16;93728.03;;;4.43;100.00
61870;BME280;47810;42.264;23.826;2024-03-07T08:35:49;93724.22;;;4.50;100.00
61870;BME280;47810;42.264;23.826;2024-03-07T08:38:48;93723.50;;;4.47;100.00
61870;BME280;47810;42.264;23.826;2024-03-07T08:41:16;93719.13;;;4.47;100.00
61870;BME280;47810;42.264;23.826;2024-03-07T08:43:47;93721.91;;;4.42;100.00
61870;BME280;47810;42.264;23.826;2024-03-07T08:49:13;93729.13;;;4.37;100.00
61870;BME280;47810;42.264;23.826;2024-03-07T08:51:44;93731.34;;;4.26;100.00
61870;BME280;47810;42.264;23.826;2024-03-07T08:54:34;93737.88;;;4.36;100.00
61870;BME280;47810;42.264;23.826;2024-03-07T08:57:05;93730.25;;;4.32;100.00
61870;BME280;47810;42.264;23.826;2024-03-07T08:59:38;93727.28;;;4.39;100.00
61870;BME280;47810;42.264;23.826;2024-03-07T09:02:25;93728.59;;;4.29;100.00
61870;BME280;47810;42.264;23.826;2024-03-07T09:08:45;93685.59;;;4.17;100.00
61870;BME280;47810;42.264;23.826;2024-03-07T09:11:23;93681.34;;;4.15;100.00
61870;BME280;47810;42.264;23.826;2024-03-07T09:16:56;93670.13;;;4.32;100.00
61870;BME280;47810;42.264;23.826;2024-03-07T09:19:24;93682.22;;;4.34;100.00
61870;BME280;47810;42.264;23.826;2024-03-07T09:21:52;93677.13;;;4.31;100.00
61870;BME280;47810;42.264;23.826;2024-03-07T09:24:20;93679.25;;;4.42;100.00
61870;BME280;47810;42.264;23.826;2024-03-07T09:26:55;93687.03;;;4.43;100.00
61870;BME280;47810;42.264;23.826;2024-03-07T09:29:26;93692.41;;;4.40;100.00
61870;BME280;47810;42.264;23.826;2024-03-07T09:32:30;93699.72;;;4.32;100.00
61870;BME280;47810;42.264;23.826;2024-03-07T09:35:07;93699.41;;;4.19;100.00
61870;BME280;47810;42.264;23.826;2024-03-07T09:37:43;93702.88;;;4.20;100.00
61870;BME280;47810;42.264;23.826;2024-03-07T09:40:28;93705.47;;;4.20;100.00
61870;BME280;47810;42.264;23.826;2024-03-07T09:43:17;93713.84;;;4.28;100.00
61870;BME280;47810;42.264;23.826;2024-03-07T09:46:09;93707.97;;;4.23;100.00
61870;BME280;47810;42.264;23.826;2024-03-07T09:52:26;93708.75;;;4.25;100.00
61870;BME280;47810;42.264;23.826;2024-03-07T09:55:28;93709.72;;;4.23;100.00
61870;BME280;47810;42.264;23.826;2024-03-07T09:57:58;93714.78;;;4.27;100.00
61870;BME280;47810;42.264;23.826;2024-03-07T10:00:29;93709.13;;;4.36;100.00
61870;BME280;47810;42.264;23.826;2024-03-07T10:07:21;93714.47;;;4.54;100.00
61870;BME280;47810;42.264;23.826;2024-03-07T10:09:57;93713.78;;;4.69;100.00
61870;BME280;47810;42.264;23.826;2024-03-07T10:16:18;93711.66;;;4.96;100.00
61870;BME280;47810;42.264;23.826;2024-03-07T10:18:48;93716.47;;;5.05;100.00
61870;BME280;47810;42.264;23.826;2024-03-07T10:21:19;93722.13;;;5.15;100.00
61870;BME280;47810;42.264;23.826;2024-03-07T10:23:53;93726.38;;;5.18;100.00
61870;BME280;47810;42.264;23.826;2024-03-07T10:26:39;93715.53;;;5.06;100.00
61870;BME280;47810;42.264;23.826;2024-03-07T10:29:13;93720.72;;;5.08;100.00
61870;BME280;47810;42.264;23.826;2024-03-07T10:34:57;93723.41;;;4.87;100.00
61870;BME280;47810;42.264;23.826;2024-03-07T10:37:25;93727.63;;;4.90;100.00
61870;BME280;47810;42.264;23.826;2024-03-07T10:56:18;93732.44;;;4.80;100.00
61870;BME280;47810;42.264;23.826;2024-03-07T11:02:34;93721.69;;;4.67;100.00
61870;BME280;47810;42.264;23.826;2024-03-07T11:05:18;93718.94;;;4.71;100.00
61870;BME280;47810;42.264;23.826;2024-03-07T11:07:58;93715.75;;;4.64;100.00
61870;BME280;47810;42.264;23.826;2024-03-07T11:10:26;93707.69;;;4.68;100.00
61870;BME280;47810;42.264;23.826;2024-03-07T11:19:32;93708.81;;;4.63;100.00
61870;BME280;47810;42.264;23.826;2024-03-07T11:22:02;93708.13;;;4.59;100.00
61870;BME280;47810;42.264;23.826;2024-03-07T11:24:43;93710.78;;;4.58;100.00
61870;BME280;47810;42.264;23.826;2024-03-07T11:34:29;93697.81;;;4.75;100.00
61870;BME280;47810;42.264;23.826;2024-03-07T11:37:09;93701.06;;;4.80;100.00
61870;BME280;47810;42.264;23.826;2024-03-07T11:39:53;93693.84;;;4.66;100.00
61870;BME280;47810;42.264;23.826;2024-03-07T11:45:18;93695.63;;;4.66;100.00
61870;BME280;47810;42.264;23.826;2024-03-07T11:47:59;93696.25;;;4.71;100.00
61870;BME280;47810;42.264;23.826;2024-03-07T11:56:31;93686.63;;;4.90;100.00
61870;BME280;47810;42.264;23.826;2024-03-07T11:59:08;93687.19;;;4.97;100.00
61870;BME280;47810;42.264;23.826;2024-03-07T12:05:26;93690.19;;;4.89;100.00
61870;BME280;47810;42.264;23.826;2024-03-07T12:11:09;93690.59;;;4.80;100.00
61870;BME280;47810;42.264;23.826;2024-03-07T12:17:35;93693.44;;;4.95;100.00
61870;BME280;47810;42.264;23.826;2024-03-07T12:20:05;93691.53;;;4.79;100.00
61870;BME280;47810;42.264;23.826;2024-03-07T12:22:50;93701.47;;;4.71;100.00
61870;BME280;47810;42.264;23.826;2024-03-07T12:29:28;93690.03;;;4.74;100.00
61870;BME280;47810;42.264;23.826;2024-03-07T12:32:06;93688.47;;;4.70;100.00
61870;BME280;47810;42.264;23.826;2024-03-07T12:34:58;93686.06;;;4.84;100.00
61870;BME280;47810;42.264;23.826;2024-03-07T12:41:18;93689.91;;;4.96;100.00
61870;BME280;47810;42.264;23.826;2024-03-07T12:43:55;93677.59;;;4.98;100.00
61870;BME280;47810;42.264;23.826;2024-03-07T12:53:29;93667.91;;;5.00;100.00
61870;BME280;47810;42.264;23.826;2024-03-07T12:56:13;93662.75;;;4.98;100.00
61870;BME280;47810;42.264;23.826;2024-03-07T13:02:19;93668.13;;;4.95;100.00
61870;BME280;47810;42.264;23.826;2024-03-07T13:04:49;93661.13;;;4.96;100.00
61870;BME280;47810;42.264;23.826;2024-03-07T13:10:54;93672.50;;;4.95;100.00
61870;BME280;47810;42.264;23.826;2024-03-07T13:16:55;93679.44;;;4.77;100.00
61870;BME280;47810;42.264;23.826;2024-03-07T13:19:21;93674.47;;;4.71;100.00
61870;BME280;47810;42.264;23.826;2024-03-07T13:21:58;93676.09;;;4.73;100.00
61870;BME280;47810;42.264;23.826;2024-03-07T13:34:29;93672.09;;;4.66;100.00
61870;BME280;47810;42.264;23.826;2024-03-07T13:36:59;93673.78;;;4.67;100.00
61870;BME280;47810;42.264;23.826;2024-03-07T13:43:01;93668.13;;;4.57;100.00
61870;BME280;47810;42.264;23.826;2024-03-07T13:45:44;93668.13;;;4.76;100.00
61870;BME280;47810;42.264;23.826;2024-03-07T13:48:17;93663.59;;;4.61;100.00
61870;BME280;47810;42.264;23.826;2024-03-07T13:54:13;93655.47;;;4.67;100.00
61870;BME280;47810;42.264;23.826;2024-03-07T14:06:01;93667.63;;;4.87;100.00
61870;BME280;47810;42.264;23.826;2024-03-07T14:25:47;93667.63;;;4.68;100.00
61870;BME280;47810;42.264;23.826;2024-03-07T14:31:13;93669.38;;;4.67;100.00
61870;BME280;47810;42.264;23.826;2024-03-07T14:40:13;93660.19;;;4.59;100.00
61870;BME280;47810;42.264;23.826;2024-03-07T14:49:12;93659.88;;;4.46;100.00
61870;BME280;47810;42.264;23.826;2024-03-07T14:51:58;93666.13;;;4.43;100.00
61870;BME280;47810;42.264;23.826;2024-03-07T14:54:27;93669.09;;;4.55;100.00
61870;BME280;47810;42.264;23.826;2024-03-07T15:02:59;93667.00;;;4.63;100.00
61870;BME280;47810;42.264;23.826;2024-03-07T15:12:40;93658.72;;;4.53;100.00
61870;BME280;47810;42.264;23.826;2024-03-07T15:15:22;93653.41;;;4.55;100.00
61870;BME280;47810;42.264;23.826;2024-03-07T15:18:06;93658.22;;;4.45;100.00
61870;BME280;47810;42.264;23.826;2024-03-07T15:20:33;93660.38;;;4.35;100.00
61870;BME280;47810;42.264;23.826;2024-03-07T15:23:03;93662.69;;;4.43;100.00
61870;BME280;47810;42.264;23.826;2024-03-07T15:26:07;93662.31;;;4.51;100.00
61870;BME280;47810;42.264;23.826;2024-03-07T15:28:47;93658.78;;;4.52;100.00
61870;BME280;47810;42.264;23.826;2024-03-07T15:34:38;93666.00;;;4.47;100.00
61870;BME280;47810;42.264;23.826;2024-03-07T15:37:07;93666.00;;;4.47;100.00
61870;BME280;47810;42.264;23.826;2024-03-07T15:39:33;93678.13;;;4.48;100.00
61870;BME280;47810;42.264;23.826;2024-03-07T15:42:05;93676.44;;;4.47;100.00
61870;BME280;47810;42.264;23.826;2024-03-07T15:44:57;93694.63;;;4.50;100.00
61870;BME280;47810;42.264;23.826;2024-03-07T15:51:06;93694.22;;;4.38;100.00
61870;BME280;47810;42.264;23.826;2024-03-07T15:53:48;93699.59;;;4.35;100.00
61870;BME280;47810;42.264;23.826;2024-03-07T15:56:17;93707.25;;;4.40;100.00
61870;BME280;47810;42.264;23.826;2024-03-07T15:58:45;93716.56;;;4.46;100.00
61870;BME280;47810;42.264;23.826;2024-03-07T16:01:13;93720.41;;;4.57;100.00
61870;BME280;47810;42.264;23.826;2024-03-07T16:03:42;93707.91;;;4.64;100.00
61870;BME280;47810;42.264;23.826;2024-03-07T16:09:46;93696.47;;;4.66;100.00
61870;BME280;47810;42.264;23.826;2024-03-07T16:12:13;93697.66;;;4.59;100.00
61870;BME280;47810;42.264;23.826;2024-03-07T16:15:04;93702.59;;;4.47;100.00
61870;BME280;47810;42.264;23.826;2024-03-07T16:17:49;93702.84;;;4.40;100.00
61870;BME280;47810;42.264;23.826;2024-03-07T16:20:19;93703.72;;;4.41;100.00
61870;BME280;47810;42.264;23.826;2024-03-07T16:22:54;93696.34;;;4.30;100.00
61870;BME280;47810;42.264;23.826;2024-03-07T16:29:29;93723.81;;;4.59;100.00
61870;BME280;47810;42.264;23.826;2024-03-07T16:32:32;93728.31;;;4.56;100.00
61870;BME280;47810;42.264;23.826;2024-03-07T16:41:56;93737.78;;;4.58;100.00
61870;BME280;47810;42.264;23.826;2024-03-07T16:44:43;93736.50;;;4.48;100.00
61870;BME280;47810;42.264;23.826;2024-03-07T16:47:11;93738.78;;;4.35;100.00
61870;BME280;47810;42.264;23.826;2024-03-07T16:49:41;93742.81;;;4.42;100.00
61870;BME280;47810;42.264;23.826;2024-03-07T16:52:09;93748.78;;;4.46;100.00
61870;BME280;47810;42.264;23.826;2024-03-07T16:58:29;93762.09;;;4.60;100.00
61870;BME280;47810;42.264;23.826;2024-03-07T17:01:15;93764.63;;;4.62;100.00
61870;BME280;47810;42.264;23.826;2024-03-07T17:03:46;93772.63;;;4.59;100.00
61870;BME280;47810;42.264;23.826;2024-03-07T17:06:19;93773.22;;;4.45;100.00
61870;BME280;47810;42.264;23.826;2024-03-07T17:08:58;93777.91;;;4.57;100.00
61870;BME280;47810;42.264;23.826;2024-03-07T17:11:36;93775.34;;;4.56;100.00
61870;BME280;47810;42.264;23.826;2024-03-07T17:14:10;93766.50;;;4.60;100.00
61870;BME280;47810;42.264;23.826;2024-03-07T17:19:53;93774.38;;;4.58;100.00
61870;BME280;47810;42.264;23.826;2024-03-07T17:25:57;93765.78;;;4.56;100.00
61870;BME280;47810;42.264;23.826;2024-03-07T17:38:54;93764.00;;;4.36;100.00
61870;BME280;47810;42.264;23.826;2024-03-07T17:41:19;93767.41;;;4.38;100.00
61870;BME280;47810;42.264;23.826;2024-03-07T17:43:57;93765.84;;;4.34;100.00
61870;BME280;47810;42.264;23.826;2024-03-07T17:46:45;93758.97;;;4.32;100.00
61870;BME280;47810;42.264;23.826;2024-03-07T17:52:12;93760.88;;;4.28;100.00
61870;BME280;47810;42.264;23.826;2024-03-07T17:54:48;93764.28;;;4.30;100.00
61870;BME280;47810;42.264;23.826;2024-03-07T17:57:28;93755.00;;;4.43;100.00
61870;BME280;47810;42.264;23.826;2024-03-07T18:03:48;93760.22;;;4.43;100.00
61870;BME280;47810;42.264;23.826;2024-03-07T18:06:23;93762.19;;;4.38;100.00
61870;BME280;47810;42.264;23.826;2024-03-07T18:08:49;93754.22;;;4.41;100.00
61870;BME280;47810;42.264;23.826;2024-03-07T18:11:27;93756.56;;;4.48;100.00
61870;BME280;47810;42.264;23.826;2024-03-07T18:14:07;93763.22;;;4.55;100.00
61870;BME280;47810;42.264;23.826;2024-03-07T18:20:28;93762.06;;;4.41;100.00
61870;BME280;47810;42.264;23.826;2024-03-07T18:23:00;93769.38;;;4.54;100.00
61870;BME280;47810;42.264;23.826;2024-03-07T18:25:59;93771.84;;;4.57;100.00
61870;BME280;47810;42.264;23.826;2024-03-07T18:32:02;93752.50;;;4.61;100.00
61870;BME280;47810;42.264;23.826;2024-03-07T18:34:39;93757.84;;;4.58;100.00
61870;BME280;47810;42.264;23.826;2024-03-07T18:40:18;93745.25;;;4.47;100.00
61870;BME280;47810;42.264;23.826;2024-03-07T18:42:57;93762.03;;;4.62;100.00
61870;BME280;47810;42.264;23.826;2024-03-07T18:45:27;93749.50;;;4.50;100.00
61870;BME280;47810;42.264;23.826;2024-03-07T18:48:18;93759.22;;;4.46;100.00
61870;BME280;47810;42.264;23.826;2024-03-07T18:50:49;93752.13;;;4.29;100.00
61870;BME280;47810;42.264;23.826;2024-03-07T18:53:18;93755.91;;;4.22;100.00
61870;BME280;47810;42.264;23.826;2024-03-07T18:55:47;93745.34;;;4.25;100.00
61870;BME280;47810;42.264;23.826;2024-03-07T18:58:20;93749.59;;;4.28;100.00
61870;BME280;47810;42.264;23.826;2024-03-07T19:07:14;93745.34;;;4.25;100.00
61870;BME280;47810;42.264;23.826;2024-03-07T19:19:40;93755.38;;;4.14;100.00
61870;BME280;47810;42.264;23.826;2024-03-07T19:22:45;93757.16;;;4.13;100.00
61870;BME280;47810;42.264;23.826;2024-03-07T19:25:28;93761.03;;;4.05;100.00
61870;BME280;47810;42.264;23.826;2024-03-07T19:28:06;93768.72;;;4.08;100.00
61870;BME280;47810;42.264;23.826;2024-03-07T19:30:43;93760.22;;;4.03;100.00
61870;BME280;47810;42.264;23.826;2024-03-07T19:33:44;93764.34;;;4.08;100.00
61870;BME280;47810;42.264;23.826;2024-03-07T19:36:24;93764.34;;;4.08;100.00
61870;BME280;47810;42.264;23.826;2024-03-07T19:38:55;93767.22;;;4.23;100.00
61870;BME280;47810;42.264;23.826;2024-03-07T19:45:01;93757.47;;;4.26;100.00
61870;BME280;47810;42.264;23.826;2024-03-07T19:51:27;93752.66;;;4.37;100.00
61870;BME280;47810;42.264;23.826;2024-03-07T19:54:31;93761.16;;;4.22;100.00
61870;BME280;47810;42.264;23.826;2024-03-07T20:03:33;93761.78;;;4.07;100.00
61870;BME280;47810;42.264;23.826;2024-03-07T20:09:53;93761.44;;;3.94;100.00
61870;BME280;47810;42.264;23.826;2024-03-07T20:12:23;93768.97;;;4.02;100.00
61870;BME280;47810;42.264;23.826;2024-03-07T20:14:54;93775.09;;;4.01;100.00
61870;BME280;47810;42.264;23.826;2024-03-07T20:17:26;93770.78;;;4.00;100.00
61870;BME280;47810;42.264;23.826;2024-03-07T20:20:09;93769.09;;;3.99;100.00
61870;BME280;47810;42.264;23.826;2024-03-07T20:33:16;93778.84;;;3.95;100.00
61870;BME280;47810;42.264;23.826;2024-03-07T20:35:59;93787.09;;;3.84;100.00
61870;BME280;47810;42.264;23.826;2024-03-07T20:38:36;93785.41;;;3.83;100.00
61870;BME280;47810;42.264;23.826;2024-03-07T20:41:05;93777.63;;;3.82;100.00
61870;BME280;47810;42.264;23.826;2024-03-07T20:43:32;93779.25;;;3.84;100.00
61870;BME280;47810;42.264;23.826;2024-03-07T20:49:01;93788.66;;;3.88;100.00
61870;BME280;47810;42.264;23.826;2024-03-07T20:51:33;93783.59;;;3.85;100.00
61870;BME280;47810;42.264;23.826;2024-03-07T20:54:25;93785.28;;;3.86;100.00
61870;BME280;47810;42.264;23.826;2024-03-07T20:57:08;93787.81;;;3.88;100.00
61870;BME280;47810;42.264;23.826;2024-03-07T20:59:42;93785.19;;;3.88;100.00
61870;BME280;47810;42.264;23.826;2024-03-07T21:02:24;93787.22;;;3.81;100.00
61870;BME280;47810;42.264;23.826;2024-03-07T21:08:12;93792.31;;;3.62;100.00